createdAt,value
2019-05-01T00:00:56.622Z,70.85
2019-05-01T00:03:43.488Z,70.62
2019-05-01T00:06:12.079Z,70.42
2019-05-01T00:08:40.778Z,73.08
2019-05-01T00:11:09.546Z,71.72
2019-05-01T00:13:38.246Z,71.55
2019-05-01T00:16:06.823Z,71.46
2019-05-01T00:18:35.305Z,72.60
2019-05-01T00:21:03.924Z,71.03
2019-05-01T00:23:32.516Z,71.31
2019-05-01T00:26:01.117Z,73.06
2019-05-01T00:28:29.801Z,71.73
2019-05-01T00:30:58.298Z,72.15
2019-05-01T00:33:26.896Z,71.48
2019-05-01T00:35:55.392Z,73.69
2019-05-01T00:38:23.994Z,72.58
2019-05-01T00:40:52.580Z,72.41
2019-05-01T00:43:21.185Z,76.11
2019-05-01T00:45:49.746Z,74.59
2019-05-01T00:48:18.362Z,73.34
2019-05-01T00:50:46.952Z,74.04
2019-05-01T00:53:15.563Z,72.24
2019-05-01T00:56:06.506Z,74.50
2019-05-01T00:59:03.758Z,75.41
2019-05-01T01:01:50.113Z,76.09
2019-05-01T01:04:19.613Z,73.69
2019-05-01T01:06:48.090Z,74.35
2019-05-01T01:09:17.100Z,74.38
2019-05-01T01:11:45.682Z,74.55
2019-05-01T01:14:14.298Z,77.12
2019-05-01T01:16:42.776Z,75.56
2019-05-01T01:19:11.490Z,75.41
2019-05-01T01:21:40.092Z,77.16
2019-05-01T01:24:08.706Z,77.30
2019-05-01T01:26:37.357Z,76.70
2019-05-01T01:29:05.860Z,76.10
2019-05-01T01:31:34.356Z,76.26
2019-05-01T01:34:04.220Z,79.58
2019-05-01T01:36:32.759Z,77.35
2019-05-01T01:39:01.570Z,78.81
2019-05-01T01:41:30.702Z,77.88
2019-05-01T01:44:14.989Z,76.79
2019-05-01T01:46:44.145Z,77.40
2019-05-01T01:49:13.122Z,77.74
2019-05-01T01:51:41.912Z,76.94
2019-05-01T01:54:11.042Z,77.80
2019-05-01T01:56:39.720Z,78.25
2019-05-01T01:59:08.741Z,78.63
2019-05-01T02:01:54.688Z,77.99
2019-05-01T02:04:52.044Z,78.45
2019-05-01T02:07:20.730Z,80.26
2019-05-01T02:09:49.405Z,80.86
2019-05-01T02:12:19.235Z,75.51
2019-05-01T02:14:47.918Z,76.50
2019-05-01T02:17:16.322Z,74.37
2019-05-01T02:19:44.946Z,76.31
2019-05-01T02:22:13.578Z,74.86
2019-05-01T02:24:42.094Z,74.67
2019-05-01T02:27:15.915Z,74.75
2019-05-01T02:29:49.321Z,74.94
2019-05-01T02:32:20.324Z,75.74
2019-05-01T02:34:50.023Z,75.74
2019-05-01T02:37:19.997Z,76.00
2019-05-01T02:39:49.867Z,74.99
2019-05-01T02:42:21.068Z,75.25
2019-05-01T02:44:51.582Z,75.96
2019-05-01T02:47:25.277Z,75.09
2019-05-01T02:50:02.308Z,75.95
2019-05-01T02:52:34.527Z,76.97
2019-05-01T02:55:09.354Z,77.22
2019-05-01T02:57:39.948Z,76.60
2019-05-01T03:00:08.937Z,77.43
2019-05-01T03:02:38.381Z,77.21
2019-05-01T03:05:07.806Z,77.37
2019-05-01T03:07:38.331Z,79.00
2019-05-01T03:10:09.473Z,80.35
2019-05-01T03:12:41.142Z,81.57
2019-05-01T03:15:12.106Z,77.24
2019-05-01T03:18:08.991Z,77.04
2019-05-01T03:20:50.786Z,78.28
2019-05-01T03:23:25.938Z,79.73
2019-05-01T03:25:55.194Z,80.83
2019-05-01T03:28:24.002Z,81.02
2019-05-01T03:30:53.113Z,80.73
2019-05-01T03:33:21.686Z,80.42
2019-05-01T03:35:50.388Z,82.08
2019-05-01T03:38:19.281Z,82.32
2019-05-01T03:40:48.289Z,81.85
2019-05-01T03:43:17.028Z,86.05
2019-05-01T03:45:45.643Z,80.41
2019-05-01T03:48:14.176Z,81.58
2019-05-01T03:50:46.557Z,80.15
2019-05-01T03:53:13.480Z,77.96
2019-05-01T03:55:42.065Z,78.07
2019-05-01T03:58:10.594Z,79.37
2019-05-01T04:01:14.020Z,81.54
2019-05-01T04:03:45.974Z,78.73
2019-05-01T04:06:14.773Z,79.06
2019-05-01T04:08:43.857Z,78.71
2019-05-01T04:11:12.465Z,77.98
2019-05-01T04:13:41.054Z,78.98
2019-05-01T04:16:10.071Z,79.20
2019-05-01T04:18:39.115Z,78.35
2019-05-01T04:21:08.637Z,78.42
2019-05-01T04:23:37.516Z,76.84
2019-05-01T04:26:07.061Z,75.96
2019-05-01T04:28:42.991Z,76.43
2019-05-01T04:31:37.111Z,76.38
2019-05-01T04:34:16.409Z,76.30
2019-05-01T04:36:48.402Z,77.52
2019-05-01T04:39:17.417Z,76.68
2019-05-01T04:41:46.256Z,76.31
2019-05-01T04:44:15.785Z,77.49
2019-05-01T04:46:44.524Z,77.25
2019-05-01T04:49:13.101Z,77.44
2019-05-01T04:51:42.007Z,77.65
2019-05-01T04:54:11.008Z,77.86
2019-05-01T04:56:39.702Z,77.28
2019-05-01T04:59:08.511Z,77.45
2019-05-01T05:01:57.295Z,77.70
2019-05-01T05:04:26.536Z,77.62
2019-05-01T05:06:55.318Z,77.82
2019-05-01T05:09:44.421Z,76.61
2019-05-01T05:12:20.960Z,76.82
2019-05-01T05:14:54.472Z,76.24
2019-05-01T05:17:24.013Z,75.64
2019-05-01T05:19:52.635Z,74.94
2019-05-01T05:22:21.935Z,76.46
2019-05-01T05:24:51.143Z,73.46
2019-05-01T05:27:19.786Z,72.72
2019-05-01T05:29:48.508Z,72.04
2019-05-01T05:32:19.797Z,72.73
2019-05-01T05:34:51.883Z,71.84
2019-05-01T05:37:27.528Z,69.46
2019-05-01T05:39:57.657Z,67.77
2019-05-01T05:42:26.401Z,63.45
2019-05-01T05:44:55.316Z,61.68
2019-05-01T05:47:25.553Z,66.90
2019-05-01T05:49:54.188Z,61.16
2019-05-01T05:52:44.461Z,59.75
2019-05-01T05:55:21.918Z,59.89
2019-05-01T05:58:21.863Z,57.81
2019-05-01T06:01:14.990Z,55.79
2019-05-01T06:04:10.701Z,54.67
2019-05-01T06:07:06.877Z,56.09
2019-05-01T06:09:48.146Z,53.90
2019-05-01T06:12:41.771Z,52.48
2019-05-01T06:15:41.144Z,53.34
2019-05-01T06:18:15.782Z,56.34
2019-05-01T06:21:03.941Z,52.52
2019-05-01T06:23:57.448Z,52.93
2019-05-01T06:26:37.085Z,53.05
2019-05-01T06:29:02.926Z,52.84
2019-05-01T06:31:32.595Z,50.49
2019-05-01T06:34:01.361Z,50.42
2019-05-01T06:36:30.721Z,51.38
2019-05-01T06:39:00.239Z,50.62
2019-05-01T06:41:40.630Z,51.71
2019-05-01T06:44:10.529Z,50.20
2019-05-01T06:46:50.370Z,50.50
2019-05-01T06:49:32.676Z,51.86
2019-05-01T06:52:03.321Z,51.50
2019-05-01T06:54:33.153Z,51.87
2019-05-01T06:57:02.766Z,50.82
2019-05-01T06:59:33.246Z,51.03
2019-05-01T07:02:02.795Z,53.44
2019-05-01T07:04:38.081Z,52.46
2019-05-01T07:07:06.840Z,50.42
2019-05-01T07:09:36.045Z,51.29
2019-05-01T07:12:07.998Z,52.00
2019-05-01T07:14:36.799Z,49.51
2019-05-01T07:17:08.963Z,49.60
2019-05-01T07:20:07.381Z,49.25
2019-05-01T07:22:37.011Z,50.39
2019-05-01T07:25:07.717Z,50.73
2019-05-01T07:27:36.330Z,48.62
2019-05-01T07:30:20.940Z,49.57
2019-05-01T07:32:49.917Z,48.44
2019-05-01T07:35:18.819Z,49.24
2019-05-01T07:37:47.924Z,49.99
2019-05-01T07:40:20.704Z,52.32
2019-05-01T07:42:51.270Z,49.48
2019-05-01T07:45:45.536Z,50.54
2019-05-01T07:48:16.836Z,50.88
2019-05-01T07:50:45.644Z,49.67
2019-05-01T07:53:14.225Z,50.31
2019-05-01T07:55:43.232Z,49.02
2019-05-01T07:58:15.893Z,49.35
2019-05-01T08:00:52.336Z,49.32
2019-05-01T08:03:21.429Z,48.45
2019-05-01T08:05:49.952Z,47.20
2019-05-01T08:08:18.472Z,48.60
2019-05-01T08:10:46.967Z,48.22
2019-05-01T08:13:15.347Z,49.05
2019-05-01T08:15:43.948Z,46.30
2019-05-01T08:18:16.936Z,49.05
2019-05-01T08:20:50.555Z,47.03
2019-05-01T08:23:20.218Z,46.47
2019-05-01T08:25:48.841Z,46.13
2019-05-01T08:28:22.867Z,47.14
2019-05-01T08:31:11.006Z,46.23
2019-05-01T08:33:56.357Z,46.57
2019-05-01T08:36:24.868Z,45.93
2019-05-01T08:38:53.713Z,45.55
2019-05-01T08:41:22.266Z,46.07
2019-05-01T08:43:54.086Z,47.51
2019-05-01T08:46:46.753Z,46.17
2019-05-01T08:49:30.061Z,47.23
2019-05-01T08:51:58.557Z,44.05
2019-05-01T08:54:29.008Z,44.71
2019-05-01T08:56:58.130Z,44.87
2019-05-01T08:59:27.878Z,44.78
2019-05-01T09:02:08.841Z,45.30
2019-05-01T09:04:30.626Z,45.23
2019-05-01T09:06:57.223Z,44.51
2019-05-01T09:09:25.757Z,45.22
2019-05-01T09:11:54.796Z,44.83
2019-05-01T09:14:23.916Z,43.96
2019-05-01T09:16:52.674Z,46.58
2019-05-01T09:19:21.323Z,49.20
2019-05-01T09:21:49.851Z,46.62
2019-05-01T09:24:18.357Z,44.69
2019-05-01T09:27:12.459Z,45.31
2019-05-01T09:29:46.830Z,49.12
2019-05-01T09:32:14.850Z,50.31
2019-05-01T09:34:43.352Z,50.43
2019-05-01T09:37:12.052Z,50.13
2019-05-01T09:39:41.254Z,49.45
2019-05-01T09:42:10.071Z,46.62
2019-05-01T09:44:38.433Z,46.95
2019-05-01T09:47:07.833Z,47.51
2019-05-01T09:49:36.437Z,46.99
2019-05-01T09:52:24.964Z,48.66
2019-05-01T09:55:01.119Z,47.33
2019-05-01T09:57:29.769Z,50.69
2019-05-01T09:59:58.374Z,47.63
2019-05-01T10:02:26.860Z,46.17
2019-05-01T10:04:55.360Z,47.06
2019-05-01T10:07:28.738Z,46.99
2019-05-01T10:09:54.317Z,46.89
2019-05-01T10:12:22.813Z,46.19
2019-05-01T10:14:51.447Z,46.73
2019-05-01T10:17:19.936Z,47.25
2019-05-01T10:19:50.150Z,47.07
2019-05-01T10:22:18.995Z,48.07
2019-05-01T10:24:47.614Z,47.03
2019-05-01T10:27:19.628Z,49.07
2019-05-01T10:30:17.017Z,47.34
2019-05-01T10:32:52.808Z,50.21
2019-05-01T10:35:44.501Z,46.72
2019-05-01T10:38:13.093Z,46.88
2019-05-01T10:40:41.788Z,46.74
2019-05-01T10:43:10.387Z,46.97
2019-05-01T10:45:38.997Z,46.67
2019-05-01T10:48:07.606Z,47.09
2019-05-01T10:50:36.090Z,47.75
2019-05-01T10:53:04.928Z,46.55
2019-05-01T10:55:33.530Z,49.20
2019-05-01T10:58:03.378Z,46.67
2019-05-01T11:00:32.871Z,47.72
2019-05-01T11:03:01.453Z,47.55
2019-05-01T11:05:30.043Z,47.40
2019-05-01T11:07:58.650Z,48.88
2019-05-01T11:10:27.163Z,47.05
2019-05-01T11:12:55.857Z,47.14
2019-05-01T11:15:24.429Z,48.73
2019-05-01T11:17:53.037Z,47.10
2019-05-01T11:20:21.739Z,47.40
2019-05-01T11:22:50.237Z,46.57
2019-05-01T11:25:20.032Z,49.80
2019-05-01T11:27:48.535Z,53.75
2019-05-01T11:30:17.219Z,54.41
2019-05-01T11:33:03.940Z,50.18
2019-05-01T11:35:50.659Z,49.93
2019-05-01T11:38:38.698Z,49.17
2019-05-01T11:41:20.466Z,51.78
2019-05-01T11:43:49.061Z,48.21
2019-05-01T11:46:17.658Z,49.46
2019-05-01T11:48:46.260Z,48.96
2019-05-01T11:51:14.777Z,51.46
2019-05-01T11:53:43.275Z,45.78
2019-05-01T11:56:11.886Z,50.35
2019-05-01T11:58:40.490Z,53.85
2019-05-01T12:01:11.001Z,49.30
2019-05-01T12:03:39.589Z,48.65
2019-05-01T12:06:08.274Z,46.06
2019-05-01T12:08:37.228Z,50.07
2019-05-01T12:11:07.830Z,52.38
2019-05-01T12:13:43.478Z,48.08
2019-05-01T12:16:17.249Z,50.41
2019-05-01T12:18:45.770Z,46.46
2019-05-01T12:21:14.387Z,46.05
2019-05-01T12:23:42.919Z,46.12
2019-05-01T12:26:11.514Z,47.64
2019-05-01T12:28:40.032Z,51.85
2019-05-01T12:31:08.833Z,52.53
2019-05-01T12:33:37.470Z,46.91
2019-05-01T12:36:07.385Z,53.94
2019-05-01T12:38:36.289Z,48.91
2019-05-01T12:41:26.402Z,47.73
2019-05-01T12:43:54.999Z,51.44
2019-05-01T12:46:47.618Z,47.37
2019-05-01T12:49:16.239Z,48.60
2019-05-01T12:51:47.184Z,46.61
2019-05-01T12:54:34.066Z,46.78
2019-05-01T12:57:02.952Z,47.86
2019-05-01T12:59:31.651Z,45.60
2019-05-01T13:02:00.252Z,46.64
2019-05-01T13:04:28.785Z,49.73
2019-05-01T13:06:58.198Z,50.34
2019-05-01T13:09:26.893Z,46.04
2019-05-01T13:11:55.525Z,45.67
2019-05-01T13:14:24.118Z,46.99
2019-05-01T13:16:52.694Z,46.93
2019-05-01T13:19:21.315Z,46.42
2019-05-01T13:21:49.914Z,46.19
2019-05-01T13:24:18.503Z,47.33
2019-05-01T13:26:59.805Z,47.29
2019-05-01T13:29:33.522Z,53.34
2019-05-01T13:32:14.184Z,52.23
2019-05-01T13:34:43.408Z,46.87
2019-05-01T13:37:11.914Z,46.92
2019-05-01T13:39:40.630Z,51.63
2019-05-01T13:42:09.523Z,46.71
2019-05-01T13:44:38.045Z,49.65
2019-05-01T13:47:06.737Z,47.10
2019-05-01T13:49:35.418Z,46.56
2019-05-01T13:52:04.147Z,46.80
2019-05-01T13:54:32.845Z,46.26
2019-05-01T13:57:01.649Z,47.55
2019-05-01T13:59:30.190Z,48.66
2019-05-01T14:01:59.082Z,48.31
2019-05-01T14:04:27.896Z,47.27
2019-05-01T14:06:56.395Z,53.13
2019-05-01T14:09:33.059Z,48.82
2019-05-01T14:12:01.917Z,50.01
2019-05-01T14:14:30.674Z,45.72
2019-05-01T14:16:59.177Z,50.06
2019-05-01T14:19:28.239Z,49.30
2019-05-01T14:22:22.703Z,46.16
2019-05-01T14:24:54.627Z,48.92
2019-05-01T14:27:23.330Z,46.85
2019-05-01T14:29:52.014Z,46.59
2019-05-01T14:32:20.749Z,50.33
2019-05-01T14:34:49.458Z,47.60
2019-05-01T14:37:29.057Z,49.67
2019-05-01T14:39:48.644Z,47.91
2019-05-01T14:42:17.835Z,45.94
2019-05-01T14:44:46.323Z,47.98
2019-05-01T14:47:15.293Z,48.40
2019-05-01T14:49:43.957Z,47.58
2019-05-01T14:52:12.675Z,47.34
2019-05-01T14:54:41.272Z,49.77
2019-05-01T14:57:09.958Z,55.89
2019-05-01T14:59:38.469Z,61.11
2019-05-01T15:02:07.002Z,71.43
2019-05-01T15:04:35.734Z,77.26
2019-05-01T15:07:04.554Z,85.61
2019-05-01T15:09:33.263Z,87.00
2019-05-01T15:12:02.497Z,89.49
2019-05-01T15:14:53.952Z,89.84
2019-05-01T15:17:45.361Z,95.12
2019-05-01T15:20:14.682Z,94.20
2019-05-01T15:22:43.299Z,95.85
2019-05-01T15:25:11.811Z,96.94
2019-05-01T15:27:40.494Z,97.26
2019-05-01T15:30:09.403Z,100.00
2019-05-01T15:32:38.427Z,100.00
2019-05-01T15:35:07.146Z,100.00
2019-05-01T15:37:35.872Z,100.00
2019-05-01T15:40:37.152Z,100.00
2019-05-01T15:43:37.006Z,100.00
2019-05-01T15:46:05.509Z,100.00
2019-05-01T15:48:34.204Z,100.00
2019-05-01T15:51:02.845Z,100.00
2019-05-01T15:53:32.136Z,100.00
2019-05-01T15:56:00.830Z,100.00
2019-05-01T15:58:29.776Z,100.00
2019-05-01T16:00:58.597Z,100.00
2019-05-01T16:03:27.316Z,100.00
2019-05-01T16:05:56.012Z,100.00
2019-05-01T16:08:25.313Z,100.00
2019-05-01T16:11:06.676Z,100.00
2019-05-01T16:13:35.307Z,100.00
2019-05-01T16:16:03.864Z,100.00
2019-05-01T16:18:32.505Z,100.00
2019-05-01T16:21:01.383Z,100.00
2019-05-01T16:23:30.070Z,100.00
2019-05-01T16:25:58.656Z,100.00
2019-05-01T16:28:27.256Z,100.00
2019-05-01T16:30:56.563Z,100.00
2019-05-01T16:33:25.174Z,100.00
2019-05-01T16:35:53.970Z,100.00
2019-05-01T16:38:30.414Z,100.00
2019-05-01T16:41:03.011Z,99.77
2019-05-01T16:43:31.904Z,100.00
2019-05-01T16:46:00.658Z,100.00
2019-05-01T16:48:29.371Z,100.00
2019-05-01T16:50:58.184Z,100.00
2019-05-01T16:53:26.817Z,100.00
2019-05-01T16:55:55.520Z,100.00
2019-05-01T16:58:24.321Z,100.00
2019-05-01T17:01:04.116Z,100.00
2019-05-01T17:03:55.215Z,100.00
2019-05-01T17:06:46.075Z,100.00
2019-05-01T17:09:36.646Z,100.00
2019-05-01T17:12:05.786Z,100.00
2019-05-01T17:14:34.597Z,100.00
2019-05-01T17:17:05.715Z,100.00
2019-05-01T17:19:34.578Z,100.00
2019-05-01T17:22:03.168Z,100.00
2019-05-01T17:24:31.769Z,100.00
2019-05-01T17:27:00.593Z,100.00
2019-05-01T17:29:29.247Z,100.00
2019-05-01T17:31:57.788Z,100.00
2019-05-01T17:34:30.771Z,100.00
2019-05-01T17:36:58.316Z,99.35
2019-05-01T17:39:27.235Z,98.20
2019-05-01T17:41:57.590Z,93.08
2019-05-01T17:44:27.004Z,91.66
2019-05-01T17:46:55.587Z,90.98
2019-05-01T17:49:24.208Z,93.00
2019-05-01T17:51:52.824Z,93.95
2019-05-01T17:54:21.455Z,94.43
2019-05-01T17:56:53.854Z,95.65
2019-05-01T17:59:24.027Z,95.88
2019-05-01T18:02:05.241Z,94.06
2019-05-01T18:04:56.178Z,98.50
2019-05-01T18:07:28.771Z,98.76
2019-05-01T18:09:57.011Z,96.16
2019-05-01T18:12:28.555Z,94.04
2019-05-01T18:14:56.572Z,93.96
2019-05-01T18:17:25.879Z,93.15
2019-05-01T18:19:54.467Z,95.82
2019-05-01T18:22:37.268Z,94.23
2019-05-01T18:25:40.777Z,93.85
2019-05-01T18:28:18.774Z,91.64
2019-05-01T18:30:51.633Z,92.99
2019-05-01T18:33:22.086Z,92.75
2019-05-01T18:35:49.362Z,92.20
2019-05-01T18:38:33.531Z,91.86
2019-05-01T18:41:27.690Z,90.94
2019-05-01T18:43:56.403Z,92.64
2019-05-01T18:46:25.312Z,93.71
2019-05-01T18:48:53.964Z,93.34
2019-05-01T18:51:22.669Z,93.87
2019-05-01T18:53:51.278Z,94.72
2019-05-01T18:56:19.999Z,92.47
2019-05-01T18:58:48.499Z,92.44
2019-05-01T19:01:17.375Z,91.62
2019-05-01T19:03:45.887Z,91.70
2019-05-01T19:06:14.727Z,88.74
2019-05-01T19:08:43.324Z,88.01
2019-05-01T19:11:13.265Z,87.57
2019-05-01T19:13:42.010Z,88.33
2019-05-01T19:16:10.616Z,86.86
2019-05-01T19:18:39.201Z,86.70
2019-05-01T19:21:09.137Z,85.05
2019-05-01T19:23:37.734Z,85.10
2019-05-01T19:26:07.015Z,86.98
2019-05-01T19:28:36.097Z,86.20
2019-05-01T19:31:04.692Z,85.24
2019-05-01T19:33:33.316Z,87.19
2019-05-01T19:36:07.550Z,87.21
2019-05-01T19:38:34.801Z,87.09
2019-05-01T19:41:08.870Z,89.11
2019-05-01T19:43:35.930Z,87.16
2019-05-01T19:46:05.691Z,88.30
2019-05-01T19:48:34.200Z,88.21
2019-05-01T19:51:02.770Z,88.62
2019-05-01T19:53:31.488Z,89.72
2019-05-01T19:56:00.172Z,89.03
2019-05-01T19:58:28.811Z,89.78
2019-05-01T20:00:59.452Z,91.39
2019-05-01T20:03:30.674Z,92.12
2019-05-01T20:05:59.453Z,92.04
2019-05-01T20:08:29.228Z,91.61
2019-05-01T20:10:57.922Z,90.10
2019-05-01T20:13:26.531Z,90.30
2019-05-01T20:15:55.127Z,90.19
2019-05-01T20:18:23.729Z,90.41
2019-05-01T20:20:52.519Z,87.67
2019-05-01T20:23:21.026Z,89.83
2019-05-01T20:25:51.088Z,90.19
2019-05-01T20:28:22.260Z,90.27
2019-05-01T20:30:50.554Z,92.19
2019-05-01T20:33:19.161Z,91.01
2019-05-01T20:35:47.962Z,90.33
2019-05-01T20:38:16.549Z,91.78
2019-05-01T20:40:45.040Z,92.94
2019-05-01T20:43:13.540Z,91.54
2019-05-01T20:45:44.907Z,92.26
2019-05-01T20:48:12.619Z,92.58
2019-05-01T20:50:41.607Z,93.40
2019-05-01T20:53:10.186Z,94.93
2019-05-01T20:55:39.576Z,95.53
2019-05-01T20:58:18.200Z,94.82
2019-05-01T21:00:53.411Z,94.69
2019-05-01T21:03:20.100Z,96.48
2019-05-01T21:05:57.330Z,95.74
2019-05-01T21:08:39.765Z,97.63
2019-05-01T21:11:13.044Z,99.15
2019-05-01T21:13:41.593Z,98.87
2019-05-01T21:16:10.226Z,100.00
2019-05-01T21:18:38.799Z,100.00
2019-05-01T21:21:07.387Z,100.00
2019-05-01T21:23:36.667Z,100.00
2019-05-01T21:26:05.471Z,98.73
2019-05-01T21:28:34.204Z,99.19
2019-05-01T21:31:03.945Z,98.46
2019-05-01T21:33:33.990Z,100.00
2019-05-01T21:36:04.785Z,100.00
2019-05-01T21:38:34.335Z,100.00
2019-05-01T21:41:02.973Z,100.00
2019-05-01T21:43:35.268Z,100.00
2019-05-01T21:46:03.946Z,100.00
2019-05-01T21:48:33.385Z,100.00
2019-05-01T21:51:05.457Z,100.00
2019-05-01T21:53:32.881Z,100.00
2019-05-01T21:56:02.266Z,100.00
2019-05-01T21:58:33.948Z,100.00
2019-05-01T22:01:04.648Z,100.00
2019-05-01T22:03:33.255Z,100.00
2019-05-01T22:06:01.938Z,100.00
2019-05-01T22:08:34.531Z,100.00
2019-05-01T22:11:01.843Z,100.00
2019-05-01T22:13:31.650Z,100.00
2019-05-01T22:16:18.408Z,100.00
2019-05-01T22:19:04.037Z,100.00
2019-05-01T22:21:58.254Z,100.00
2019-05-01T22:25:01.781Z,100.00
2019-05-01T22:27:35.445Z,100.00
2019-05-01T22:30:46.161Z,100.00
2019-05-01T22:33:13.504Z,100.00
2019-05-01T22:35:47.083Z,100.00
2019-05-01T22:38:15.556Z,100.00
2019-05-01T22:41:06.907Z,100.00
2019-05-01T22:43:34.192Z,100.00
2019-05-01T22:46:04.285Z,100.00
2019-05-01T22:48:32.790Z,100.00
2019-05-01T22:51:08.545Z,100.00
2019-05-01T22:53:37.147Z,100.00
2019-05-01T22:56:05.949Z,100.00
2019-05-01T22:58:34.631Z,100.00
2019-05-01T23:01:04.313Z,100.00
2019-05-01T23:03:47.192Z,100.00
2019-05-01T23:06:16.663Z,100.00
2019-05-01T23:08:45.195Z,100.00
2019-05-01T23:11:20.264Z,100.00
2019-05-01T23:13:44.068Z,100.00
2019-05-01T23:16:13.879Z,100.00
2019-05-01T23:18:42.350Z,100.00
2019-05-01T23:21:14.494Z,100.00
2019-05-01T23:23:41.245Z,100.00
2019-05-01T23:26:11.717Z,100.00
2019-05-01T23:28:41.023Z,100.00
2019-05-01T23:31:09.647Z,100.00
2019-05-01T23:33:38.101Z,100.00
2019-05-01T23:36:06.780Z,100.00
2019-05-01T23:38:35.371Z,100.00
2019-05-01T23:41:03.984Z,100.00
2019-05-01T23:43:32.568Z,100.00
2019-05-01T23:46:01.255Z,100.00
2019-05-01T23:48:29.851Z,100.00
2019-05-01T23:50:58.431Z,100.00
2019-05-01T23:53:27.009Z,100.00
2019-05-01T23:56:00.194Z,100.00
2019-05-01T23:58:26.103Z,100.00
